Christian Reinauer — WDA6472 — position and weather

sailwx.info

Track history (hours):
 
Tides and Currents Weather Stations Pressure Air Temp Water Temp Dewpoint Dewpoint Depression Visibility Wind Speed Wind Dir Waves Ship Positions

Christian Reinauer

Owner: REINAUER TRANSPORTATION CO LLC, STATEN ISLAND, NY. More information available from US FCC via Universal Licensing System and Coast Guard Vessel Documentation Center.

Last reported at 2017-Feb-22 14:33 UTC. Time now 2017-Feb-22 15:17 UTC.
Position N 40°45' W 074°01'.

Length 170 m; draft 6.4 m.

Type: Tanker. MMSI: 366832740.

Date/timePositionNaut miles runAvg speedWind from/ knotsBaromVisibWave heightAir tempDewpointWater temp
2017-Feb-22 14:33N 40°45' W 074°01'1 0.8
2017-Feb-22 13:33N 40°45' W 074°01'4 4.3
2017-Feb-22 12:33N 40°47' W 073°55'10 9.4
2017-Feb-22 11:32N 40°52' W 073°45'  
2017-Feb-18 05:17N 40°53' W 073°43'710.2
2017-Feb-18 04:33N 40°48' W 073°50'1010.2
2017-Feb-18 03:33N 40°42' W 074°00'10 9.5
2017-Feb-18 02:33N 40°38' W 074°12'6 6.0
2017-Feb-18 01:33N 40°33' W 074°15'0 0.0
2017-Feb-17 23:16N 40°33' W 074°15'0 0.0
2017-Feb-17 22:28N 40°33' W 074°15'0 0.0
2017-Feb-17 17:28N 40°33' W 074°15'0 0.0
2017-Feb-17 16:16N 40°33' W 074°15'0 0.0
2017-Feb-17 15:22N 40°33' W 074°15'0 0.0
2017-Feb-17 14:31N 40°33' W 074°15'0 0.0
2017-Feb-17 12:28N 40°33' W 074°15'0 0.0
2017-Feb-17 11:33N 40°33' W 074°15'0 0.0
2017-Feb-17 10:34N 40°33' W 074°15'0 0.0
2017-Feb-17 09:33N 40°33' W 074°15'0 0.0
2017-Feb-17 08:33N 40°33' W 074°15'0 0.0
2017-Feb-17 07:33N 40°33' W 074°15'0 0.0
2017-Feb-17 06:33N 40°33' W 074°15'0 0.0
2017-Feb-17 05:32N 40°33' W 074°15'0 0.0
2017-Feb-17 04:33N 40°33' W 074°15'0 0.0
2017-Feb-17 03:33N 40°33' W 074°15'0 0.0
2017-Feb-17 02:33N 40°33' W 074°15'0 0.0
2017-Feb-17 01:33N 40°33' W 074°15'0 0.0
2017-Feb-17 00:32N 40°33' W 074°15'0 0.0
2017-Feb-16 23:33N 40°33' W 074°15'0 0.0
2017-Feb-16 22:33N 40°33' W 074°15'0 0.0
2017-Feb-16 21:33N 40°33' W 074°15'0 0.0
2017-Feb-16 20:33N 40°33' W 074°15'0 0.0
2017-Feb-16 19:33N 40°33' W 074°15'0 0.0
2017-Feb-16 18:33N 40°33' W 074°15'0 0.0
2017-Feb-16 17:32N 40°33' W 074°15'0 0.0
2017-Feb-16 16:33N 40°33' W 074°15'0 0.0
2017-Feb-16 15:33N 40°33' W 074°15'0 0.0
2017-Feb-16 14:33N 40°33' W 074°15'0 0.0
2017-Feb-16 13:33N 40°33' W 074°15'0 0.0
2017-Feb-16 12:33N 40°33' W 074°15'8 2.5
2017-Feb-16 09:33N 40°39' W 074°10'7 7.4
2017-Feb-16 08:33N 40°41' W 074°01'1110.5
2017-Feb-16 07:33N 40°48' W 073°50'1110.0
2017-Feb-16 06:30N 40°55' W 073°39'4611.6
2017-Feb-16 02:33N 41°07' W 072°40'1211.6
2017-Feb-16 01:32N 41°10' W 072°25'10 9.9
2017-Feb-16 00:33N 41°12' W 072°13'48 9.3
2017-Feb-15 19:24N 41°37' W 071°18'911.2
2017-Feb-15 18:33N 41°46' W 071°23'2 2.3
2017-Feb-15 17:31N 41°48' W 071°24'0 0.0
2017-Feb-15 16:31N 41°48' W 071°24'0 0.0
2017-Feb-15 15:31N 41°48' W 071°24'0 0.0
2017-Feb-15 14:31N 41°48' W 071°24'0 0.0
2017-Feb-15 13:31N 41°48' W 071°24'0 0.0
2017-Feb-15 12:32N 41°48' W 071°24'0 0.0
2017-Feb-15 11:31N 41°48' W 071°24'0 0.0
2017-Feb-15 10:31N 41°48' W 071°24'0 0.0
2017-Feb-15 09:31N 41°48' W 071°24'0 0.0
2017-Feb-15 08:31N 41°48' W 071°24'0 0.0
2017-Feb-15 07:31N 41°48' W 071°24'0 0.0
2017-Feb-15 06:31N 41°48' W 071°24'0 0.0
2017-Feb-15 05:31N 41°48' W 071°24'0 0.0
2017-Feb-15 04:31N 41°48' W 071°24'0 0.0
2017-Feb-15 03:31N 41°48' W 071°24'0 0.0
2017-Feb-15 02:25N 41°48' W 071°24'0 0.0
2017-Feb-15 01:31N 41°48' W 071°24'0 0.0
2017-Feb-15 00:34N 41°48' W 071°24'4 4.2
2017-Feb-14 23:33N 41°44' W 071°22'1110.7
2017-Feb-14 22:33N 41°34' W 071°19'5210.3
2017-Feb-14 17:30N 41°11' W 072°21'1010.3
2017-Feb-14 16:33N 41°08' W 072°33'5611.1
2017-Feb-14 11:30N 40°52' W 073°45'9 9.0
2017-Feb-14 10:33N 40°48' W 073°55'6 5.8
2017-Feb-14 09:33N 40°43' W 073°58'5 5.1
2017-Feb-14 08:33N 40°39' W 074°03'0 0.1
2017-Feb-14 07:33N 40°39' W 074°03'2 1.9
2017-Feb-14 06:33N 40°39' W 074°05'6 5.7
2017-Feb-14 05:33N 40°36' W 074°12'1 1.0
2017-Feb-14 04:32N 40°35' W 074°12'0 0.0
2017-Feb-14 03:32N 40°35' W 074°12'0 0.0
2017-Feb-14 02:32N 40°35' W 074°12'0 0.0
2017-Feb-14 01:32N 40°35' W 074°12'0 0.0
2017-Feb-14 00:32N 40°35' W 074°12'0 0.0
2017-Feb-13 23:32N 40°35' W 074°12'0 0.0
2017-Feb-13 22:32N 40°35' W 074°12'0 0.0
2017-Feb-13 21:32N 40°35' W 074°12'0 0.0
2017-Feb-13 20:23N 40°35' W 074°12'0 0.0
2017-Feb-13 19:29N 40°35' W 074°12'0 0.0
2017-Feb-13 18:32N 40°35' W 074°12'0 0.0
2017-Feb-13 17:29N 40°35' W 074°12'0 0.0
2017-Feb-13 16:32N 40°35' W 074°12'0 0.0
2017-Feb-13 15:26N 40°35' W 074°12'0 0.0
2017-Feb-13 14:32N 40°35' W 074°12'0 0.0
2017-Feb-13 13:32N 40°35' W 074°12'0 0.0
2017-Feb-13 12:28N 40°35' W 074°12'0 0.0
2017-Feb-13 11:31N 40°35' W 074°12'0 0.0
2017-Feb-13 10:28N 40°35' W 074°12'0 0.0
2017-Feb-13 09:31N 40°35' W 074°12'0 0.0
2017-Feb-13 08:31N 40°35' W 074°12'0 0.0
2017-Feb-13 07:28N 40°35' W 074°12'0 0.0
2017-Feb-13 06:31N 40°35' W 074°12'0 0.0
2017-Feb-13 05:31N 40°35' W 074°12'0 0.0
2017-Feb-13 04:31N 40°35' W 074°12'0 0.0
2017-Feb-13 03:31N 40°35' W 074°12'0 0.0
2017-Feb-13 02:31N 40°35' W 074°12'0 0.0
2017-Feb-13 01:31N 40°35' W 074°12'0 0.0
2017-Feb-13 00:31N 40°35' W 074°12'0 0.0
2017-Feb-12 23:33N 40°35' W 074°12'3 3.3
2017-Feb-12 22:34N 40°39' W 074°11'8 8.3
2017-Feb-12 21:33N 40°35' W 074°01'0 0.1
2017-Feb-12 20:33N 40°35' W 074°01'0 0.0
2017-Feb-12 19:33N 40°35' W 074°01'0 0.0
2017-Feb-12 18:33N 40°35' W 074°01'0 0.0
2017-Feb-12 17:33N 40°35' W 074°01'0 0.1
2017-Feb-12 16:33N 40°35' W 074°01'0 0.0
2017-Feb-12 15:33N 40°35' W 074°01'  
Track history (hours):
 
Tides and Currents Weather Stations Pressure Air Temp Water Temp Dewpoint Dewpoint Depression Visibility Wind Speed Wind Dir Waves Ship Positions

Christian Reinauer

Owner: REINAUER TRANSPORTATION CO LLC, STATEN ISLAND, NY. More information available from US FCC via Universal Licensing System and Coast Guard Vessel Documentation Center.

Last reported at 2017-Feb-22 14:33 UTC. Time now 2017-Feb-22 15:17 UTC.
Position N 40°45' W 074°01'.

Length 170 m; draft 6.4 m.

Type: Tanker. MMSI: 366832740.

Date/timePositionNaut miles runAvg speedWind from/ knotsBaromVisibWave heightAir tempDewpointWater temp
2017-Feb-22 14:33N 40°45' W 074°01'1 0.8
2017-Feb-22 13:33N 40°45' W 074°01'4 4.3
2017-Feb-22 12:33N 40°47' W 073°55'10 9.4
2017-Feb-22 11:32N 40°52' W 073°45'  
2017-Feb-18 05:17N 40°53' W 073°43'710.2
2017-Feb-18 04:33N 40°48' W 073°50'1010.2
2017-Feb-18 03:33N 40°42' W 074°00'10 9.5
2017-Feb-18 02:33N 40°38' W 074°12'6 6.0
2017-Feb-18 01:33N 40°33' W 074°15'0 0.0
2017-Feb-17 23:16N 40°33' W 074°15'0 0.0
2017-Feb-17 22:28N 40°33' W 074°15'0 0.0
2017-Feb-17 17:28N 40°33' W 074°15'0 0.0
2017-Feb-17 16:16N 40°33' W 074°15'0 0.0
2017-Feb-17 15:22N 40°33' W 074°15'0 0.0
2017-Feb-17 14:31N 40°33' W 074°15'0 0.0
2017-Feb-17 12:28N 40°33' W 074°15'0 0.0
2017-Feb-17 11:33N 40°33' W 074°15'0 0.0
2017-Feb-17 10:34N 40°33' W 074°15'0 0.0
2017-Feb-17 09:33N 40°33' W 074°15'0 0.0
2017-Feb-17 08:33N 40°33' W 074°15'0 0.0
2017-Feb-17 07:33N 40°33' W 074°15'0 0.0
2017-Feb-17 06:33N 40°33' W 074°15'0 0.0
2017-Feb-17 05:32N 40°33' W 074°15'0 0.0
2017-Feb-17 04:33N 40°33' W 074°15'0 0.0
2017-Feb-17 03:33N 40°33' W 074°15'0 0.0
2017-Feb-17 02:33N 40°33' W 074°15'0 0.0
2017-Feb-17 01:33N 40°33' W 074°15'0 0.0
2017-Feb-17 00:32N 40°33' W 074°15'0 0.0
2017-Feb-16 23:33N 40°33' W 074°15'0 0.0
2017-Feb-16 22:33N 40°33' W 074°15'0 0.0
2017-Feb-16 21:33N 40°33' W 074°15'0 0.0
2017-Feb-16 20:33N 40°33' W 074°15'0 0.0
2017-Feb-16 19:33N 40°33' W 074°15'0 0.0
2017-Feb-16 18:33N 40°33' W 074°15'0 0.0
2017-Feb-16 17:32N 40°33' W 074°15'0 0.0
2017-Feb-16 16:33N 40°33' W 074°15'0 0.0
2017-Feb-16 15:33N 40°33' W 074°15'0 0.0
2017-Feb-16 14:33N 40°33' W 074°15'0 0.0
2017-Feb-16 13:33N 40°33' W 074°15'0 0.0
2017-Feb-16 12:33N 40°33' W 074°15'8 2.5
2017-Feb-16 09:33N 40°39' W 074°10'7 7.4
2017-Feb-16 08:33N 40°41' W 074°01'1110.5
2017-Feb-16 07:33N 40°48' W 073°50'1110.0
2017-Feb-16 06:30N 40°55' W 073°39'4611.6
2017-Feb-16 02:33N 41°07' W 072°40'1211.6
2017-Feb-16 01:32N 41°10' W 072°25'10 9.9
2017-Feb-16 00:33N 41°12' W 072°13'48 9.3
2017-Feb-15 19:24N 41°37' W 071°18'911.2
2017-Feb-15 18:33N 41°46' W 071°23'2 2.3
2017-Feb-15 17:31N 41°48' W 071°24'0 0.0
2017-Feb-15 16:31N 41°48' W 071°24'0 0.0
2017-Feb-15 15:31N 41°48' W 071°24'0 0.0
2017-Feb-15 14:31N 41°48' W 071°24'0 0.0
2017-Feb-15 13:31N 41°48' W 071°24'0 0.0
2017-Feb-15 12:32N 41°48' W 071°24'0 0.0
2017-Feb-15 11:31N 41°48' W 071°24'0 0.0
2017-Feb-15 10:31N 41°48' W 071°24'0 0.0
2017-Feb-15 09:31N 41°48' W 071°24'0 0.0
2017-Feb-15 08:31N 41°48' W 071°24'0 0.0
2017-Feb-15 07:31N 41°48' W 071°24'0 0.0
2017-Feb-15 06:31N 41°48' W 071°24'0 0.0
2017-Feb-15 05:31N 41°48' W 071°24'0 0.0
2017-Feb-15 04:31N 41°48' W 071°24'0 0.0
2017-Feb-15 03:31N 41°48' W 071°24'0 0.0
2017-Feb-15 02:25N 41°48' W 071°24'0 0.0
2017-Feb-15 01:31N 41°48' W 071°24'0 0.0
2017-Feb-15 00:34N 41°48' W 071°24'4 4.2
2017-Feb-14 23:33N 41°44' W 071°22'1110.7
2017-Feb-14 22:33N 41°34' W 071°19'5210.3
2017-Feb-14 17:30N 41°11' W 072°21'1010.3
2017-Feb-14 16:33N 41°08' W 072°33'5611.1
2017-Feb-14 11:30N 40°52' W 073°45'9 9.0
2017-Feb-14 10:33N 40°48' W 073°55'6 5.8
2017-Feb-14 09:33N 40°43' W 073°58'5 5.1
2017-Feb-14 08:33N 40°39' W 074°03'0 0.1
2017-Feb-14 07:33N 40°39' W 074°03'2 1.9
2017-Feb-14 06:33N 40°39' W 074°05'6 5.7
2017-Feb-14 05:33N 40°36' W 074°12'1 1.0
2017-Feb-14 04:32N 40°35' W 074°12'0 0.0
2017-Feb-14 03:32N 40°35' W 074°12'0 0.0
2017-Feb-14 02:32N 40°35' W 074°12'0 0.0
2017-Feb-14 01:32N 40°35' W 074°12'0 0.0
2017-Feb-14 00:32N 40°35' W 074°12'0 0.0
2017-Feb-13 23:32N 40°35' W 074°12'0 0.0
2017-Feb-13 22:32N 40°35' W 074°12'0 0.0
2017-Feb-13 21:32N 40°35' W 074°12'0 0.0
2017-Feb-13 20:23N 40°35' W 074°12'0 0.0
2017-Feb-13 19:29N 40°35' W 074°12'0 0.0
2017-Feb-13 18:32N 40°35' W 074°12'0 0.0
2017-Feb-13 17:29N 40°35' W 074°12'0 0.0
2017-Feb-13 16:32N 40°35' W 074°12'0 0.0
2017-Feb-13 15:26N 40°35' W 074°12'0 0.0
2017-Feb-13 14:32N 40°35' W 074°12'0 0.0
2017-Feb-13 13:32N 40°35' W 074°12'0 0.0
2017-Feb-13 12:28N 40°35' W 074°12'0 0.0
2017-Feb-13 11:31N 40°35' W 074°12'0 0.0
2017-Feb-13 10:28N 40°35' W 074°12'0 0.0
2017-Feb-13 09:31N 40°35' W 074°12'0 0.0
2017-Feb-13 08:31N 40°35' W 074°12'0 0.0
2017-Feb-13 07:28N 40°35' W 074°12'0 0.0
2017-Feb-13 06:31N 40°35' W 074°12'0 0.0
2017-Feb-13 05:31N 40°35' W 074°12'0 0.0
2017-Feb-13 04:31N 40°35' W 074°12'0 0.0
2017-Feb-13 03:31N 40°35' W 074°12'0 0.0
2017-Feb-13 02:31N 40°35' W 074°12'0 0.0
2017-Feb-13 01:31N 40°35' W 074°12'0 0.0
2017-Feb-13 00:31N 40°35' W 074°12'0 0.0
2017-Feb-12 23:33N 40°35' W 074°12'3 3.3
2017-Feb-12 22:34N 40°39' W 074°11'8 8.3
2017-Feb-12 21:33N 40°35' W 074°01'0 0.1
2017-Feb-12 20:33N 40°35' W 074°01'0 0.0
2017-Feb-12 19:33N 40°35' W 074°01'0 0.0
2017-Feb-12 18:33N 40°35' W 074°01'0 0.0
2017-Feb-12 17:33N 40°35' W 074°01'0 0.1
2017-Feb-12 16:33N 40°35' W 074°01'0 0.0
2017-Feb-12 15:33N 40°35' W 074°01'  

Dump ship's entire track history